sensor_id;sensor_type;location;lat;lon;timestamp;pressure;altitude;pressure_sealevel;temperature;humidity
7480;BME280;3781;42.272;22.658;2023-04-02T00:01:16;93794.03;;;4.19;100.00
7480;BME280;3781;42.272;22.658;2023-04-02T00:04:12;93777.78;;;4.19;100.00
7480;BME280;3781;42.272;22.658;2023-04-02T00:06:42;93785.38;;;4.20;100.00
7480;BME280;3781;42.272;22.658;2023-04-02T00:09:22;93771.34;;;4.24;100.00
7480;BME280;3781;42.272;22.658;2023-04-02T00:11:50;93780.81;;;4.46;100.00
7480;BME280;3781;42.272;22.658;2023-04-02T00:14:22;93782.59;;;4.34;100.00
7480;BME280;3781;42.272;22.658;2023-04-02T00:16:51;93781.63;;;4.24;100.00
7480;BME280;3781;42.272;22.658;2023-04-02T00:19:22;93788.66;;;4.22;100.00
7480;BME280;3781;42.272;22.658;2023-04-02T00:21:52;93783.75;;;4.19;100.00
7480;BME280;3781;42.272;22.658;2023-04-02T00:24:20;93781.88;;;4.10;100.00
7480;BME280;3781;42.272;22.658;2023-04-02T00:26:50;93757.47;;;4.16;100.00
7480;BME280;3781;42.272;22.658;2023-04-02T00:29:17;93780.03;;;4.45;100.00
7480;BME280;3781;42.272;22.658;2023-04-02T00:31:46;93783.41;;;4.35;100.00
7480;BME280;3781;42.272;22.658;2023-04-02T00:34:17;93777.94;;;4.28;100.00
7480;BME280;3781;42.272;22.658;2023-04-02T00:36:46;93783.75;;;4.41;100.00
7480;BME280;3781;42.272;22.658;2023-04-02T00:39:18;93746.13;;;4.40;100.00
7480;BME280;3781;42.272;22.658;2023-04-02T00:41:45;93782.78;;;4.65;100.00
7480;BME280;3781;42.272;22.658;2023-04-02T00:44:13;93745.06;;;4.54;100.00
7480;BME280;3781;42.272;22.658;2023-04-02T00:46:47;93752.66;;;4.44;100.00
7480;BME280;3781;42.272;22.658;2023-04-02T00:49:22;93786.97;;;4.66;100.00
7480;BME280;3781;42.272;22.658;2023-04-02T00:51:52;93788.63;;;4.67;100.00
7480;BME280;3781;42.272;22.658;2023-04-02T00:54:24;93787.94;;;4.76;100.00
7480;BME280;3781;42.272;22.658;2023-04-02T00:56:54;93772.78;;;5.04;100.00
7480;BME280;3781;42.272;22.658;2023-04-02T00:59:26;93767.63;;;5.36;100.00
7480;BME280;3781;42.272;22.658;2023-04-02T01:01:57;93781.03;;;5.71;100.00
7480;BME280;3781;42.272;22.658;2023-04-02T01:04:31;93786.13;;;5.82;100.00
7480;BME280;3781;42.272;22.658;2023-04-02T01:07:01;93786.47;;;5.57;100.00
7480;BME280;3781;42.272;22.658;2023-04-02T01:09:53;93763.25;;;5.16;100.00
7480;BME280;3781;42.272;22.658;2023-04-02T01:12:43;93794.16;;;5.05;100.00
7480;BME280;3781;42.272;22.658;2023-04-02T01:15:16;93776.16;;;4.94;100.00
7480;BME280;3781;42.272;22.658;2023-04-02T01:17:53;93778.59;;;4.52;100.00
7480;BME280;3781;42.272;22.658;2023-04-02T01:20:47;93797.41;;;4.42;100.00
7480;BME280;3781;42.272;22.658;2023-04-02T01:23:26;93805.25;;;4.29;100.00
7480;BME280;3781;42.272;22.658;2023-04-02T01:26:03;93779.44;;;3.98;100.00
7480;BME280;3781;42.272;22.658;2023-04-02T01:28:47;93809.00;;;4.36;100.00
7480;BME280;3781;42.272;22.658;2023-04-02T01:31:16;93804.06;;;4.44;100.00
7480;BME280;3781;42.272;22.658;2023-04-02T01:33:43;93779.06;;;4.57;100.00
7480;BME280;3781;42.272;22.658;2023-04-02T01:36:15;93783.94;;;4.83;100.00
7480;BME280;3781;42.272;22.658;2023-04-02T01:38:48;93801.63;;;5.19;100.00
7480;BME280;3781;42.272;22.658;2023-04-02T01:41:24;93789.69;;;5.07;100.00
7480;BME280;3781;42.272;22.658;2023-04-02T01:43:57;93775.72;;;5.00;100.00
7480;BME280;3781;42.272;22.658;2023-04-02T01:46:29;93776.34;;;4.59;100.00
7480;BME280;3781;42.272;22.658;2023-04-02T01:48:59;93780.72;;;4.36;100.00
7480;BME280;3781;42.272;22.658;2023-04-02T01:51:30;93775.44;;;4.49;100.00
7480;BME280;3781;42.272;22.658;2023-04-02T01:53:59;93786.06;;;4.78;100.00
7480;BME280;3781;42.272;22.658;2023-04-02T01:56:27;93778.47;;;4.76;100.00
7480;BME280;3781;42.272;22.658;2023-04-02T01:58:57;93799.84;;;4.66;100.00
7480;BME280;3781;42.272;22.658;2023-04-02T02:01:27;93787.03;;;4.43;100.00
7480;BME280;3781;42.272;22.658;2023-04-02T02:03:57;93773.00;;;4.14;100.00
7480;BME280;3781;42.272;22.658;2023-04-02T02:06:24;93806.66;;;4.33;100.00
7480;BME280;3781;42.272;22.658;2023-04-02T02:08:53;93790.53;;;4.20;100.00
7480;BME280;3781;42.272;22.658;2023-04-02T02:11:22;93774.38;;;3.85;100.00
7480;BME280;3781;42.272;22.658;2023-04-02T02:13:54;93808.03;;;3.93;100.00
7480;BME280;3781;42.272;22.658;2023-04-02T02:16:23;93808.03;;;3.93;100.00
7480;BME280;3781;42.272;22.658;2023-04-02T02:18:55;93779.38;;;3.75;100.00
7480;BME280;3781;42.272;22.658;2023-04-02T02:21:30;93786.97;;;3.77;100.00
7480;BME280;3781;42.272;22.658;2023-04-02T02:24:02;93807.75;;;3.74;100.00
7480;BME280;3781;42.272;22.658;2023-04-02T02:26:32;93798.16;;;3.65;100.00
7480;BME280;3781;42.272;22.658;2023-04-02T02:29:02;93796.56;;;3.86;100.00
7480;BME280;3781;42.272;22.658;2023-04-02T02:31:34;93795.34;;;3.68;100.00
7480;BME280;3781;42.272;22.658;2023-04-02T02:34:11;93787.81;;;3.43;100.00
7480;BME280;3781;42.272;22.658;2023-04-02T02:36:46;93789.50;;;3.66;100.00
7480;BME280;3781;42.272;22.658;2023-04-02T02:39:16;93790.88;;;3.59;100.00
7480;BME280;3781;42.272;22.658;2023-04-02T02:41:49;93751.66;;;3.46;100.00
7480;BME280;3781;42.272;22.658;2023-04-02T02:44:20;93787.22;;;3.74;100.00
7480;BME280;3781;42.272;22.658;2023-04-02T02:46:51;93787.78;;;3.77;100.00
7480;BME280;3781;42.272;22.658;2023-04-02T02:49:22;93789.31;;;3.80;100.00
7480;BME280;3781;42.272;22.658;2023-04-02T02:51:56;93789.09;;;3.94;100.00
7480;BME280;3781;42.272;22.658;2023-04-02T02:54:24;93761.28;;;3.77;100.00
7480;BME280;3781;42.272;22.658;2023-04-02T02:56:54;93757.69;;;3.91;100.00
7480;BME280;3781;42.272;22.658;2023-04-02T02:59:23;93790.28;;;4.23;100.00
7480;BME280;3781;42.272;22.658;2023-04-02T03:01:52;93793.91;;;4.43;100.00
7480;BME280;3781;42.272;22.658;2023-04-02T03:04:20;93783.97;;;4.61;100.00
7480;BME280;3781;42.272;22.658;2023-04-02T03:06:49;93778.34;;;4.67;100.00
7480;BME280;3781;42.272;22.658;2023-04-02T03:09:22;93785.06;;;4.90;100.00
7480;BME280;3781;42.272;22.658;2023-04-02T03:12:00;93770.69;;;4.87;100.00
7480;BME280;3781;42.272;22.658;2023-04-02T03:14:31;93788.59;;;4.89;100.00
7480;BME280;3781;42.272;22.658;2023-04-02T03:17:06;93743.19;;;4.45;100.00
7480;BME280;3781;42.272;22.658;2023-04-02T03:19:40;93757.81;;;4.44;100.00
7480;BME280;3781;42.272;22.658;2023-04-02T03:22:14;93772.53;;;4.42;100.00
7480;BME280;3781;42.272;22.658;2023-04-02T03:24:50;93751.63;;;4.14;100.00
7480;BME280;3781;42.272;22.658;2023-04-02T03:27:21;93794.03;;;4.30;100.00
7480;BME280;3781;42.272;22.658;2023-04-02T03:30:02;93769.25;;;4.07;100.00
7480;BME280;3781;42.272;22.658;2023-04-02T03:32:36;93767.63;;;4.06;100.00
7480;BME280;3781;42.272;22.658;2023-04-02T03:35:08;93798.00;;;4.45;100.00
7480;BME280;3781;42.272;22.658;2023-04-02T03:37:43;93796.84;;;4.49;100.00
7480;BME280;3781;42.272;22.658;2023-04-02T03:40:16;93794.03;;;4.30;100.00
7480;BME280;3781;42.272;22.658;2023-04-02T03:42:47;93792.41;;;4.29;100.00
7480;BME280;3781;42.272;22.658;2023-04-02T03:45:17;93800.31;;;4.26;100.00
7480;BME280;3781;42.272;22.658;2023-04-02T03:47:51;93772.78;;;4.06;100.00
7480;BME280;3781;42.272;22.658;2023-04-02T03:50:24;93791.81;;;4.15;100.00
7480;BME280;3781;42.272;22.658;2023-04-02T03:52:53;93784.44;;;4.10;100.00
7480;BME280;3781;42.272;22.658;2023-04-02T03:55:22;93802.44;;;4.10;100.00
7480;BME280;3781;42.272;22.658;2023-04-02T03:57:56;93803.59;;;4.06;100.00
7480;BME280;3781;42.272;22.658;2023-04-02T04:00:28;93792.16;;;4.10;100.00
7480;BME280;3781;42.272;22.658;2023-04-02T04:03:04;93800.34;;;4.15;100.00
7480;BME280;3781;42.272;22.658;2023-04-02T04:05:37;93791.94;;;4.02;100.00
7480;BME280;3781;42.272;22.658;2023-04-02T04:08:13;93810.16;;;4.10;100.00
7480;BME280;3781;42.272;22.658;2023-04-02T04:10:42;93803.13;;;4.01;100.00
7480;BME280;3781;42.272;22.658;2023-04-02T04:13:12;93803.81;;;4.03;100.00
7480;BME280;3781;42.272;22.658;2023-04-02T04:15:45;93801.16;;;3.94;100.00
7480;BME280;3781;42.272;22.658;2023-04-02T04:18:19;93807.44;;;4.12;100.00
7480;BME280;3781;42.272;22.658;2023-04-02T04:20:51;93806.41;;;4.14;100.00
7480;BME280;3781;42.272;22.658;2023-04-02T04:23:24;93803.94;;;3.91;100.00
7480;BME280;3781;42.272;22.658;2023-04-02T04:25:59;93817.97;;;3.98;100.00
7480;BME280;3781;42.272;22.658;2023-04-02T04:28:33;93815.03;;;3.91;100.00
7480;BME280;3781;42.272;22.658;2023-04-02T04:31:11;93818.38;;;3.92;100.00
7480;BME280;3781;42.272;22.658;2023-04-02T04:33:46;93821.78;;;3.92;100.00
7480;BME280;3781;42.272;22.658;2023-04-02T04:36:20;93797.97;;;3.90;100.00
7480;BME280;3781;42.272;22.658;2023-04-02T04:38:52;93795.38;;;3.79;100.00
7480;BME280;3781;42.272;22.658;2023-04-02T04:41:26;93831.13;;;3.82;100.00
7480;BME280;3781;42.272;22.658;2023-04-02T04:43:58;93825.00;;;3.72;100.00
7480;BME280;3781;42.272;22.658;2023-04-02T04:46:31;93828.50;;;3.71;100.00
7480;BME280;3781;42.272;22.658;2023-04-02T04:49:07;93828.28;;;3.85;100.00
7480;BME280;3781;42.272;22.658;2023-04-02T04:51:39;93821.53;;;3.84;100.00
7480;BME280;3781;42.272;22.658;2023-04-02T04:54:10;93821.88;;;3.79;100.00
7480;BME280;3781;42.272;22.658;2023-04-02T04:56:38;93830.19;;;3.94;100.00
7480;BME280;3781;42.272;22.658;2023-04-02T04:59:13;93825.31;;;3.91;100.00
7480;BME280;3781;42.272;22.658;2023-04-02T05:01:44;93826.13;;;4.03;100.00
7480;BME280;3781;42.272;22.658;2023-04-02T05:04:18;93843.97;;;3.93;100.00
7480;BME280;3781;42.272;22.658;2023-04-02T05:06:51;93843.16;;;3.93;100.00
7480;BME280;3781;42.272;22.658;2023-04-02T05:09:23;93849.69;;;3.97;100.00
7480;BME280;3781;42.272;22.658;2023-04-02T05:12:02;93838.16;;;4.02;100.00
7480;BME280;3781;42.272;22.658;2023-04-02T05:14:34;93839.69;;;4.27;100.00
7480;BME280;3781;42.272;22.658;2023-04-02T05:17:04;93829.53;;;4.25;100.00
7480;BME280;3781;42.272;22.658;2023-04-02T05:19:40;93807.25;;;4.37;100.00
7480;BME280;3781;42.272;22.658;2023-04-02T05:22:19;93846.47;;;4.83;100.00
7480;BME280;3781;42.272;22.658;2023-04-02T05:24:55;93853.47;;;5.03;100.00
7480;BME280;3781;42.272;22.658;2023-04-02T05:27:31;93846.97;;;5.31;100.00
7480;BME280;3781;42.272;22.658;2023-04-02T05:30:07;93863.75;;;5.46;100.00
7480;BME280;3781;42.272;22.658;2023-04-02T05:32:40;93861.69;;;6.03;100.00
7480;BME280;3781;42.272;22.658;2023-04-02T05:35:14;93845.50;;;6.43;100.00
7480;BME280;3781;42.272;22.658;2023-04-02T05:37:41;93848.97;;;7.51;100.00
7480;BME280;3781;42.272;22.658;2023-04-02T05:40:13;93853.31;;;7.70;100.00
7480;BME280;3781;42.272;22.658;2023-04-02T05:42:42;93857.16;;;7.56;100.00
7480;BME280;3781;42.272;22.658;2023-04-02T05:45:19;93857.41;;;7.73;100.00
7480;BME280;3781;42.272;22.658;2023-04-02T05:47:51;93861.41;;;7.18;100.00
7480;BME280;3781;42.272;22.658;2023-04-02T05:50:27;93863.59;;;7.22;100.00
7480;BME280;3781;42.272;22.658;2023-04-02T05:53:01;93850.84;;;7.30;100.00
7480;BME280;3781;42.272;22.658;2023-04-02T05:55:41;93867.88;;;7.03;100.00
7480;BME280;3781;42.272;22.658;2023-04-02T05:58:15;93869.88;;;7.20;100.00
7480;BME280;3781;42.272;22.658;2023-04-02T06:01:00;93870.66;;;7.11;100.00
7480;BME280;3781;42.272;22.658;2023-04-02T06:03:37;93869.63;;;6.93;100.00
7480;BME280;3781;42.272;22.658;2023-04-02T06:06:16;93869.00;;;7.00;100.00
7480;BME280;3781;42.272;22.658;2023-04-02T06:08:50;93876.53;;;6.92;100.00
7480;BME280;3781;42.272;22.658;2023-04-02T06:11:23;93873.81;;;6.84;100.00
7480;BME280;3781;42.272;22.658;2023-04-02T06:13:51;93872.81;;;7.06;100.00
7480;BME280;3781;42.272;22.658;2023-04-02T06:16:19;93871.19;;;7.14;100.00
7480;BME280;3781;42.272;22.658;2023-04-02T06:18:50;93871.47;;;7.21;100.00
7480;BME280;3781;42.272;22.658;2023-04-02T06:21:19;93870.97;;;7.36;100.00
7480;BME280;3781;42.272;22.658;2023-04-02T06:23:51;93867.19;;;7.59;100.00
7480;BME280;3781;42.272;22.658;2023-04-02T06:26:22;93869.78;;;7.79;100.00
7480;BME280;3781;42.272;22.658;2023-04-02T06:28:52;93865.59;;;8.35;100.00
7480;BME280;3781;42.272;22.658;2023-04-02T06:31:27;93875.94;;;9.45;100.00
7480;BME280;3781;42.272;22.658;2023-04-02T06:33:56;93877.81;;;10.15;87.85
7480;BME280;3781;42.272;22.658;2023-04-02T06:36:26;93891.09;;;10.55;81.82
7480;BME280;3781;42.272;22.658;2023-04-02T06:38:56;93854.31;;;10.42;82.49
7480;BME280;3781;42.272;22.658;2023-04-02T06:41:24;93874.88;;;11.13;78.37
7480;BME280;3781;42.272;22.658;2023-04-02T06:43:53;93877.00;;;11.51;80.15
7480;BME280;3781;42.272;22.658;2023-04-02T06:46:25;93881.09;;;12.20;77.46
7480;BME280;3781;42.272;22.658;2023-04-02T06:48:58;93881.59;;;12.39;76.57
7480;BME280;3781;42.272;22.658;2023-04-02T06:51:30;93887.94;;;12.37;75.21
7480;BME280;3781;42.272;22.658;2023-04-02T06:53:59;93885.31;;;12.13;77.86
7480;BME280;3781;42.272;22.658;2023-04-02T06:56:37;93892.00;;;11.65;77.58
7480;BME280;3781;42.272;22.658;2023-04-02T06:59:06;93891.31;;;11.13;78.84
7480;BME280;3781;42.272;22.658;2023-04-02T07:01:35;93849.16;;;10.94;82.93
7480;BME280;3781;42.272;22.658;2023-04-02T07:04:04;93890.47;;;11.13;82.34
7480;BME280;3781;42.272;22.658;2023-04-02T07:06:32;93893.75;;;10.89;84.20
7480;BME280;3781;42.272;22.658;2023-04-02T07:09:01;93897.50;;;10.95;85.39
7480;BME280;3781;42.272;22.658;2023-04-02T07:11:28;93891.41;;;11.04;84.82
7480;BME280;3781;42.272;22.658;2023-04-02T07:13:58;93882.63;;;11.05;83.89
7480;BME280;3781;42.272;22.658;2023-04-02T07:16:26;93895.88;;;11.19;83.95
7480;BME280;3781;42.272;22.658;2023-04-02T07:18:55;93897.09;;;11.33;81.45
7480;BME280;3781;42.272;22.658;2023-04-02T07:21:23;93900.44;;;11.25;80.18
7480;BME280;3781;42.272;22.658;2023-04-02T07:23:51;93914.38;;;11.50;80.60
7480;BME280;3781;42.272;22.658;2023-04-02T07:26:19;93909.56;;;11.63;78.46
7480;BME280;3781;42.272;22.658;2023-04-02T07:28:47;93869.34;;;11.42;75.97
7480;BME280;3781;42.272;22.658;2023-04-02T07:31:15;93919.56;;;11.92;78.03
7480;BME280;3781;42.272;22.658;2023-04-02T07:33:43;93919.09;;;11.96;76.39
7480;BME280;3781;42.272;22.658;2023-04-02T07:36:13;93915.75;;;12.44;73.12
7480;BME280;3781;42.272;22.658;2023-04-02T07:38:40;93921.03;;;13.47;68.69
7480;BME280;3781;42.272;22.658;2023-04-02T07:41:08;93887.59;;;13.82;64.28
7480;BME280;3781;42.272;22.658;2023-04-02T07:43:35;93903.03;;;14.30;63.05
7480;BME280;3781;42.272;22.658;2023-04-02T07:46:03;93922.88;;;14.39;60.26
7480;BME280;3781;42.272;22.658;2023-04-02T07:48:30;93925.91;;;14.73;57.86
7480;BME280;3781;42.272;22.658;2023-04-02T07:50:57;93928.81;;;14.78;58.59
7480;BME280;3781;42.272;22.658;2023-04-02T07:53:27;93897.00;;;15.56;55.79
7480;BME280;3781;42.272;22.658;2023-04-02T07:55:55;93926.47;;;17.07;53.81
7480;BME280;3781;42.272;22.658;2023-04-02T07:58:23;93924.91;;;17.13;49.82
7480;BME280;3781;42.272;22.658;2023-04-02T08:00:56;93931.66;;;18.38;47.21
7480;BME280;3781;42.272;22.658;2023-04-02T08:03:24;93929.81;;;19.31;43.24
7480;BME280;3781;42.272;22.658;2023-04-02T08:05:52;93938.25;;;20.94;41.25
7480;BME280;3781;42.272;22.658;2023-04-02T08:08:20;93911.75;;;21.14;37.72
7480;BME280;3781;42.272;22.658;2023-04-02T08:10:49;93937.09;;;22.43;37.49
7480;BME280;3781;42.272;22.658;2023-04-02T08:13:19;93932.84;;;22.06;37.23
7480;BME280;3781;42.272;22.658;2023-04-02T08:15:47;93931.59;;;21.90;37.41
7480;BME280;3781;42.272;22.658;2023-04-02T08:18:15;93932.28;;;22.22;37.60
7480;BME280;3781;42.272;22.658;2023-04-02T08:20:42;93929.94;;;21.96;37.84
7480;BME280;3781;42.272;22.658;2023-04-02T08:23:12;93916.84;;;22.01;38.50
7480;BME280;3781;42.272;22.658;2023-04-02T08:25:42;93911.28;;;20.54;39.44
7480;BME280;3781;42.272;22.658;2023-04-02T08:28:09;93886.06;;;21.21;39.46
7480;BME280;3781;42.272;22.658;2023-04-02T08:30:36;93905.72;;;21.74;38.65
7480;BME280;3781;42.272;22.658;2023-04-02T08:33:04;93914.78;;;20.79;39.39
7480;BME280;3781;42.272;22.658;2023-04-02T08:35:31;93894.28;;;20.50;40.55
7480;BME280;3781;42.272;22.658;2023-04-02T08:37:57;93918.94;;;20.62;39.03
7480;BME280;3781;42.272;22.658;2023-04-02T08:40:28;93920.44;;;21.88;38.69
7480;BME280;3781;42.272;22.658;2023-04-02T08:43:09;93914.69;;;22.93;36.92
7480;BME280;3781;42.272;22.658;2023-04-02T08:45:43;93915.16;;;23.43;34.59
7480;BME280;3781;42.272;22.658;2023-04-02T08:48:14;93905.66;;;24.40;33.55
7480;BME280;3781;42.272;22.658;2023-04-02T08:50:44;93911.13;;;23.98;33.27
7480;BME280;3781;42.272;22.658;2023-04-02T08:53:13;93913.66;;;23.06;31.79
7480;BME280;3781;42.272;22.658;2023-04-02T08:55:45;93905.91;;;22.93;31.82
7480;BME280;3781;42.272;22.658;2023-04-02T08:58:25;93916.00;;;23.14;32.74
7480;BME280;3781;42.272;22.658;2023-04-02T09:00:55;93903.53;;;22.73;33.18
7480;BME280;3781;42.272;22.658;2023-04-02T09:03:29;93881.16;;;20.68;35.20
7480;BME280;3781;42.272;22.658;2023-04-02T09:05:58;93866.69;;;20.46;36.17
7480;BME280;3781;42.272;22.658;2023-04-02T09:08:28;93900.66;;;20.67;37.24
7480;BME280;3781;42.272;22.658;2023-04-02T09:11:01;93899.81;;;20.73;35.16
7480;BME280;3781;42.272;22.658;2023-04-02T09:13:33;93897.72;;;21.38;35.65
7480;BME280;3781;42.272;22.658;2023-04-02T09:16:06;93893.19;;;19.36;35.54
7480;BME280;3781;42.272;22.658;2023-04-02T09:18:35;93899.06;;;19.38;36.79
7480;BME280;3781;42.272;22.658;2023-04-02T09:21:21;93885.69;;;19.20;36.91
7480;BME280;3781;42.272;22.658;2023-04-02T09:23:53;93888.34;;;19.40;37.00
7480;BME280;3781;42.272;22.658;2023-04-02T09:26:22;93883.66;;;19.55;38.27
7480;BME280;3781;42.272;22.658;2023-04-02T09:28:52;93879.22;;;19.36;36.93
7480;BME280;3781;42.272;22.658;2023-04-02T09:31:33;93871.44;;;19.74;36.80
7480;BME280;3781;42.272;22.658;2023-04-02T09:34:25;93887.97;;;20.82;34.41
7480;BME280;3781;42.272;22.658;2023-04-02T09:36:52;93881.28;;;20.49;34.63
7480;BME280;3781;42.272;22.658;2023-04-02T09:39:22;93873.47;;;21.23;35.24
7480;BME280;3781;42.272;22.658;2023-04-02T09:41:50;93846.81;;;20.44;36.33
7480;BME280;3781;42.272;22.658;2023-04-02T09:44:20;93866.09;;;21.31;34.74
7480;BME280;3781;42.272;22.658;2023-04-02T09:46:50;93830.31;;;22.08;33.36
7480;BME280;3781;42.272;22.658;2023-04-02T09:49:24;93846.19;;;23.32;31.82
7480;BME280;3781;42.272;22.658;2023-04-02T09:52:25;93857.22;;;25.06;31.28
7480;BME280;3781;42.272;22.658;2023-04-02T09:55:18;93833.75;;;24.86;28.77
7480;BME280;3781;42.272;22.658;2023-04-02T09:57:47;93855.22;;;23.65;30.07
7480;BME280;3781;42.272;22.658;2023-04-02T10:00:18;93850.91;;;24.79;29.63
7480;BME280;3781;42.272;22.658;2023-04-02T10:03:01;93848.06;;;25.13;29.29
7480;BME280;3781;42.272;22.658;2023-04-02T10:05:30;93845.63;;;24.67;29.46
7480;BME280;3781;42.272;22.658;2023-04-02T10:08:07;93834.72;;;23.49;31.51
7480;BME280;3781;42.272;22.658;2023-04-02T10:10:36;93835.81;;;22.95;31.27
7480;BME280;3781;42.272;22.658;2023-04-02T10:13:08;93837.09;;;24.37;29.13
7480;BME280;3781;42.272;22.658;2023-04-02T10:15:44;93835.91;;;23.93;30.22
7480;BME280;3781;42.272;22.658;2023-04-02T10:18:21;93806.78;;;25.27;30.15
7480;BME280;3781;42.272;22.658;2023-04-02T10:20:53;93839.53;;;26.69;28.11
7480;BME280;3781;42.272;22.658;2023-04-02T10:23:23;93816.88;;;24.92;28.94
7480;BME280;3781;42.272;22.658;2023-04-02T10:25:54;93839.75;;;23.85;29.64
7480;BME280;3781;42.272;22.658;2023-04-02T10:28:29;93833.47;;;24.15;29.38
7480;BME280;3781;42.272;22.658;2023-04-02T10:30:59;93838.72;;;24.94;27.98
7480;BME280;3781;42.272;22.658;2023-04-02T10:33:32;93832.63;;;24.54;29.73
7480;BME280;3781;42.272;22.658;2023-04-02T10:36:07;93832.88;;;23.38;29.31
7480;BME280;3781;42.272;22.658;2023-04-02T10:38:44;93833.69;;;24.25;28.58
7480;BME280;3781;42.272;22.658;2023-04-02T10:41:24;93804.47;;;25.48;27.48
7480;BME280;3781;42.272;22.658;2023-04-02T10:44:04;93827.53;;;26.94;25.73
7480;BME280;3781;42.272;22.658;2023-04-02T10:46:36;93799.66;;;26.26;26.08
7480;BME280;3781;42.272;22.658;2023-04-02T10:49:15;93819.75;;;26.12;26.11
7480;BME280;3781;42.272;22.658;2023-04-02T10:51:54;93822.28;;;25.14;26.27
7480;BME280;3781;42.272;22.658;2023-04-02T10:54:31;93788.75;;;24.07;25.66
7480;BME280;3781;42.272;22.658;2023-04-02T10:57:07;93789.31;;;23.34;27.05
7480;BME280;3781;42.272;22.658;2023-04-02T10:59:39;93797.56;;;24.68;27.66
7480;BME280;3781;42.272;22.658;2023-04-02T11:02:25;93788.84;;;25.01;26.45
7480;BME280;3781;42.272;22.658;2023-04-02T11:04:56;93805.28;;;25.31;25.92
7480;BME280;3781;42.272;22.658;2023-04-02T11:07:27;93793.88;;;26.82;23.11
7480;BME280;3781;42.272;22.658;2023-04-02T11:09:58;93809.53;;;26.52;23.33
7480;BME280;3781;42.272;22.658;2023-04-02T11:12:40;93810.56;;;26.51;23.01
7480;BME280;3781;42.272;22.658;2023-04-02T11:15:14;93801.69;;;26.19;24.50
7480;BME280;3781;42.272;22.658;2023-04-02T11:17:42;93801.38;;;25.94;22.45
7480;BME280;3781;42.272;22.658;2023-04-02T11:20:40;93796.50;;;25.48;24.00
7480;BME280;3781;42.272;22.658;2023-04-02T11:23:12;93798.97;;;25.71;24.75
7480;BME280;3781;42.272;22.658;2023-04-02T11:25:40;93806.72;;;25.56;23.11
7480;BME280;3781;42.272;22.658;2023-04-02T11:28:24;93805.19;;;25.60;25.34
7480;BME280;3781;42.272;22.658;2023-04-02T11:30:53;93795.88;;;24.46;25.98
7480;BME280;3781;42.272;22.658;2023-04-02T11:33:36;93785.75;;;21.57;28.35
7480;BME280;3781;42.272;22.658;2023-04-02T11:39:44;93786.75;;;20.95;30.25
7480;BME280;3781;42.272;22.658;2023-04-02T11:42:27;93783.25;;;21.98;28.38
7480;BME280;3781;42.272;22.658;2023-04-02T11:44:55;93780.31;;;23.12;26.49
7480;BME280;3781;42.272;22.658;2023-04-02T11:47:26;93768.00;;;22.41;26.90
7480;BME280;3781;42.272;22.658;2023-04-02T11:50:05;93766.88;;;20.92;27.88
7480;BME280;3781;42.272;22.658;2023-04-02T11:52:35;93778.38;;;20.24;29.48
7480;BME280;3781;42.272;22.658;2023-04-02T11:55:22;93772.81;;;20.01;29.75
7480;BME280;3781;42.272;22.658;2023-04-02T11:58:26;93748.16;;;20.20;30.26
7480;BME280;3781;42.272;22.658;2023-04-02T12:01:24;93760.91;;;21.03;29.43
7480;BME280;3781;42.272;22.658;2023-04-02T12:07:16;93722.34;;;18.89;30.38
7480;BME280;3781;42.272;22.658;2023-04-02T12:09:48;93748.56;;;19.28;30.88
7480;BME280;3781;42.272;22.658;2023-04-02T12:12:24;93743.94;;;19.81;29.54
7480;BME280;3781;42.272;22.658;2023-04-02T12:14:53;93753.22;;;21.56;28.22
7480;BME280;3781;42.272;22.658;2023-04-02T12:17:27;93752.41;;;21.92;27.01
7480;BME280;3781;42.272;22.658;2023-04-02T12:19:56;93748.44;;;21.11;27.50
7480;BME280;3781;42.272;22.658;2023-04-02T12:22:25;93746.63;;;20.37;27.67
7480;BME280;3781;42.272;22.658;2023-04-02T12:24:55;93750.16;;;19.87;28.43
7480;BME280;3781;42.272;22.658;2023-04-02T12:27:26;93756.75;;;19.65;29.45
7480;BME280;3781;42.272;22.658;2023-04-02T12:29:57;93747.84;;;19.66;28.36
7480;BME280;3781;42.272;22.658;2023-04-02T12:32:36;93772.63;;;20.34;28.98
7480;BME280;3781;42.272;22.658;2023-04-02T12:35:04;93768.13;;;21.33;31.65
7480;BME280;3781;42.272;22.658;2023-04-02T12:37:32;93771.78;;;20.89;31.00
7480;BME280;3781;42.272;22.658;2023-04-02T12:40:01;93772.00;;;21.12;31.58
7480;BME280;3781;42.272;22.658;2023-04-02T12:42:32;93769.03;;;21.27;29.36
7480;BME280;3781;42.272;22.658;2023-04-02T12:45:03;93755.47;;;21.71;29.53
7480;BME280;3781;42.272;22.658;2023-04-02T12:47:31;93765.00;;;22.91;29.33
7480;BME280;3781;42.272;22.658;2023-04-02T12:49:59;93773.00;;;24.17;25.88
7480;BME280;3781;42.272;22.658;2023-04-02T12:52:27;93778.00;;;23.04;25.82
7480;BME280;3781;42.272;22.658;2023-04-02T12:54:56;93775.44;;;22.63;28.33
7480;BME280;3781;42.272;22.658;2023-04-02T12:57:32;93770.13;;;21.37;27.35
7480;BME280;3781;42.272;22.658;2023-04-02T13:00:30;93771.09;;;20.13;28.94
7480;BME280;3781;42.272;22.658;2023-04-02T13:03:19;93765.88;;;18.85;29.99
7480;BME280;3781;42.272;22.658;2023-04-02T13:05:50;93774.34;;;18.35;30.67
7480;BME280;3781;42.272;22.658;2023-04-02T13:08:21;93757.56;;;18.36;30.99
7480;BME280;3781;42.272;22.658;2023-04-02T13:10:53;93757.75;;;19.06;29.06
7480;BME280;3781;42.272;22.658;2023-04-02T13:13:27;93767.09;;;19.66;27.25
7480;BME280;3781;42.272;22.658;2023-04-02T13:16:18;93728.94;;;19.37;27.58
7480;BME280;3781;42.272;22.658;2023-04-02T13:18:49;93737.94;;;18.84;28.60
7480;BME280;3781;42.272;22.658;2023-04-02T13:21:25;93767.44;;;18.21;28.70
7480;BME280;3781;42.272;22.658;2023-04-02T13:23:53;93742.66;;;17.56;28.50
7480;BME280;3781;42.272;22.658;2023-04-02T13:26:21;93772.19;;;17.71;29.61
7480;BME280;3781;42.272;22.658;2023-04-02T13:28:57;93768.19;;;17.82;30.70
7480;BME280;3781;42.272;22.658;2023-04-02T13:31:26;93734.88;;;17.28;30.54
7480;BME280;3781;42.272;22.658;2023-04-02T13:33:53;93766.31;;;17.22;31.35
7480;BME280;3781;42.272;22.658;2023-04-02T13:36:20;93769.16;;;17.27;32.13
7480;BME280;3781;42.272;22.658;2023-04-02T13:38:47;93758.72;;;17.40;32.41
7480;BME280;3781;42.272;22.658;2023-04-02T13:41:20;93747.13;;;17.62;31.83
7480;BME280;3781;42.272;22.658;2023-04-02T13:43:49;93759.44;;;18.55;31.05
7480;BME280;3781;42.272;22.658;2023-04-02T13:46:19;93730.97;;;20.11;29.23